Estación Meteorológica Peña el Pijo (Robertgarden) [ 02/03/23 02:54:14 CET ]

Fecha Hora Presion(HPa) Temp (°C) Humedad % Rocio (°C) Viento ( m/s) Direccion Lluvia 1Hora(mm) Lluvia 24H(mm) LLuvia Total(mm)
2012-Jun-11 01:01:16 1010.500 20.0 54 10.4         159.54
2012-Jun-11 02:01:11 1010.300 19.8 55 10.5         159.54
2012-Jun-11 03:03:20 1009.800 19.1 58 10.7         159.54
2012-Jun-11 04:01:14 1009.100 17.9 61 10.2         159.54
2012-Jun-11 05:01:14 1008.700 17.4 63 10.3         159.54
2012-Jun-11 06:01:11 1008.600 17.2 63 10.1         159.54
2012-Jun-11 07:01:13 1008.600 17.3 59 9.2         159.54
2012-Jun-11 08:01:16 1008.300 18.1 53 8.3         159.54
2012-Jun-11 09:01:18 1008.400 21.1 44 8.3         159.54
2012-Jun-11 10:01:16 1008.300 23.9 39 9.1 0.8 SSE     159.54
2012-Jun-11 11:01:16 1008.200 25.3 35 8.7         159.54
2012-Jun-11 12:01:14 1007.800 26.8 34 9.5         159.54
2012-Jun-11 13:01:13 1007.800 27.3 31 8.7 1.2 WNW     159.54
2012-Jun-11 14:01:14 1007.100 27.9 28 7.6 2.0 SSW     159.54
2012-Jun-11 15:01:16 1006.700 27.8 24 5.2 1.3 ENE     159.54
2012-Jun-11 16:01:18 1006.400 28.8 22 4.8 2.1 E     159.54
2012-Jun-11 17:01:16 1005.700 28.6 25 6.4         159.54
2012-Jun-11 18:01:16 1005.600 27.8 26 6.3 1.8 SSW     159.54
2012-Jun-11 19:01:16 1005.500 25.7 29 6.3         159.54
2012-Jun-11 20:01:16 1005.400 24.0 32 6.2         159.54
2012-Jun-11 21:01:17 1005.800 21.4 34 4.8         159.54
2012-Jun-11 22:01:18 1006.000 20.2 35 4.1 1.0 SW     159.54
2012-Jun-11 23:01:14 1006.500 19.1 35 3.2 0.3 SE     159.54

Temperatura Máxima:28°    Temperatura Mínima:17°
Presión Máxima:1010.500 Hpa    Presión Mínima:1005.400 Hpa


Volver